Time;durP1;ratioP1;P1;durP2;ratioP2;P2;SDS_P1;SDS_P2;PMS_P1;PMS_P2;Temp;Humidity;BMP_temperature;BMP_pressure;BME280_temperature;BME280_humidity;BME280_pressure;Samples;Min_cycle;Max_cycle;Signal;HPM_P1;HPM_P2
2022/01/27 00:00:43;;;;;;;0.60;0.60;;;;;;;;;;5041588;28;20175;-67
2022/01/27 00:05:40;;;;;;;0.70;0.70;;;;;;;;;;5061867;28;20179;-68
2022/01/27 00:13:12;;;;;;;0.60;0.60;;;;;;;;;;5060543;28;20191;-68
2022/01/27 00:15:39;;;;;;;0.60;0.60;;;;;;;;;;5060725;28;20172;-68
2022/01/27 00:18:13;;;;;;;0.60;0.60;;;;;;;;;;5060381;28;20200;-67
2022/01/27 00:20:39;;;;;;;0.60;0.60;;;;;;;;;;5061162;28;20263;-68
2022/01/27 00:23:05;;;;;;;0.60;0.60;;;;;;;;;;5062318;28;20182;-66
2022/01/27 00:25:31;;;;;;;0.60;0.60;;;;;;;;;;5060811;28;20172;-65
2022/01/27 00:27:57;;;;;;;0.50;0.50;;;;;;;;;;5061015;28;20551;-67
2022/01/27 00:30:23;;;;;;;0.50;0.50;;;;;;;;;;5062311;28;20914;-67
2022/01/27 00:32:49;;;;;;;0.50;0.50;;;;;;;;;;5060184;28;20806;-68
2022/01/27 00:35:15;;;;;;;0.60;0.60;;;;;;;;;;5061441;28;20167;-66
2022/01/27 00:37:41;;;;;;;0.50;0.50;;;;;;;;;;5062059;28;20168;-67
2022/01/27 00:40:11;;;;;;;0.60;0.60;;;;;;;;;;5042369;28;20168;-66
2022/01/27 00:42:38;;;;;;;0.70;0.70;;;;;;;;;;5060791;28;20904;-65
2022/01/27 00:45:04;;;;;;;0.60;0.60;;;;;;;;;;5062399;28;20176;-66
2022/01/27 00:47:30;;;;;;;0.70;0.70;;;;;;;;;;5062144;28;20167;-67
2022/01/27 00:49:56;;;;;;;0.63;0.63;;;;;;;;;;5043514;28;20172;-66
2022/01/27 00:52:36;;;;;;;0.65;0.65;;;;;;;;;;5060324;28;20226;-65
2022/01/27 00:55:02;;;;;;;0.50;0.50;;;;;;;;;;5062271;28;20647;-69
2022/01/27 00:59:59;;;;;;;0.60;0.60;;;;;;;;;;5061434;28;20562;-65
2022/01/27 01:02:45;;;;;;;0.60;0.60;;;;;;;;;;5062107;28;20179;-64
2022/01/27 01:08:01;;;;;;;0.60;0.60;;;;;;;;;;5063099;28;20198;-66
2022/01/27 01:15:35;;;;;;;0.60;0.60;;;;;;;;;;5068535;28;20168;-67
2022/01/27 01:21:33;;;;;;;0.50;0.50;;;;;;;;;;5065547;28;20175;-67
2022/01/27 01:34:19;;;;;;;0.60;0.60;;;;;;;;;;5063912;28;20176;-67
2022/01/27 01:36:55;;;;;;;0.45;0.45;;;;;;;;;;5063667;28;20233;-67
2022/01/27 01:39:22;;;;;;;0.60;0.60;;;;;;;;;;5113667;22;20622;-63
2022/01/27 01:41:48;;;;;;;0.60;0.60;;;;;;;;;;5105782;28;20174;-63
2022/01/27 01:44:14;;;;;;;0.50;0.50;;;;;;;;;;5085962;28;20552;-63
2022/01/27 01:46:40;;;;;;;0.60;0.60;;;;;;;;;;5104104;28;20170;-63
2022/01/27 01:49:06;;;;;;;0.50;0.50;;;;;;;;;;5094016;28;20424;-63
2022/01/27 01:51:34;;;;;;;0.60;0.60;;;;;;;;;;5083670;28;20401;-63
2022/01/27 01:54:00;;;;;;;0.60;0.60;;;;;;;;;;5083352;28;20209;-63
2022/01/27 01:56:26;;;;;;;0.55;0.55;;;;;;;;;;5085199;28;20249;-63
2022/01/27 01:58:52;;;;;;;0.50;0.50;;;;;;;;;;5082256;28;20186;-64
2022/01/27 02:01:18;;;;;;;0.60;0.60;;;;;;;;;;5084350;28;20665;-63
2022/01/27 02:03:46;;;;;;;0.60;0.60;;;;;;;;;;5064659;28;20673;-63
2022/01/27 02:06:19;;;;;;;0.60;0.60;;;;;;;;;;5084641;28;20166;-63
2022/01/27 02:09:11;;;;;;;0.70;0.70;;;;;;;;;;5084859;28;20282;-63
2022/01/27 02:20:00;;;;;;;0.60;0.60;;;;;;;;;;5084338;28;20268;-63
2022/01/27 02:22:26;;;;;;;0.60;0.60;;;;;;;;;;5064355;28;20176;-63
2022/01/27 02:24:53;;;;;;;0.60;0.60;;;;;;;;;;5084155;28;20166;-63
2022/01/27 02:27:20;;;;;;;0.50;0.50;;;;;;;;;;5084035;28;20190;-63
2022/01/27 02:29:47;;;;;;;0.60;0.60;;;;;;;;;;5082347;28;20199;-63
2022/01/27 02:32:14;;;;;;;0.60;0.60;;;;;;;;;;5083860;28;20643;-63
2022/01/27 02:34:40;;;;;;;0.50;0.50;;;;;;;;;;5083653;28;20193;-63
2022/01/27 02:37:07;;;;;;;0.60;0.60;;;;;;;;;;5082350;28;20167;-63
2022/01/27 02:39:33;;;;;;;0.50;0.50;;;;;;;;;;5083615;28;20244;-63
2022/01/27 02:42:17;;;;;;;0.50;0.50;;;;;;;;;;5083098;28;20251;-63
2022/01/27 02:44:46;;;;;;;0.60;0.60;;;;;;;;;;5084006;28;20221;-63
2022/01/27 02:47:16;;;;;;;0.60;0.60;;;;;;;;;;5082545;28;20177;-63
2022/01/27 02:49:42;;;;;;;0.60;0.60;;;;;;;;;;5082280;28;20558;-63
2022/01/27 02:52:09;;;;;;;0.68;0.68;;;;;;;;;;5065755;28;20228;-63
2022/01/27 02:54:35;;;;;;;0.50;0.50;;;;;;;;;;5082449;28;20215;-63
2022/01/27 02:57:01;;;;;;;0.50;0.50;;;;;;;;;;5082454;28;20175;-63
2022/01/27 02:59:27;;;;;;;0.60;0.60;;;;;;;;;;5083976;28;20194;-63
2022/01/27 03:01:53;;;;;;;0.60;0.60;;;;;;;;;;5082441;28;20304;-63
2022/01/27 03:04:20;;;;;;;0.60;0.60;;;;;;;;;;5083469;28;20173;-63
2022/01/27 03:06:46;;;;;;;0.60;0.60;;;;;;;;;;5083880;28;20174;-63
2022/01/27 03:09:13;;;;;;;0.60;0.60;;;;;;;;;;5081969;28;20298;-63
2022/01/27 03:11:46;;;;;;;0.60;0.60;;;;;;;;;;5082458;28;20170;-63
2022/01/27 03:14:14;;;;;;;0.52;0.52;;;;;;;;;;5063475;28;20601;-63
2022/01/27 03:16:40;;;;;;;0.70;0.70;;;;;;;;;;5082365;28;20170;-63
2022/01/27 03:19:06;;;;;;;0.60;0.60;;;;;;;;;;5083503;28;20228;-63
2022/01/27 03:21:32;;;;;;;0.60;0.60;;;;;;;;;;5081783;28;20167;-63
2022/01/27 03:23:58;;;;;;;0.60;0.60;;;;;;;;;;5082057;28;20192;-63
2022/01/27 03:26:25;;;;;;;0.70;0.70;;;;;;;;;;5083351;28;20958;-63
2022/01/27 03:28:51;;;;;;;0.60;0.60;;;;;;;;;;5081426;28;20461;-63
2022/01/27 03:31:17;;;;;;;0.60;0.60;;;;;;;;;;5081811;28;20202;-63
2022/01/27 03:33:43;;;;;;;0.50;0.50;;;;;;;;;;5082778;28;20242;-63
2022/01/27 03:36:10;;;;;;;0.60;0.60;;;;;;;;;;5080819;28;20168;-63
2022/01/27 03:38:39;;;;;;;0.60;0.60;;;;;;;;;;5082059;28;20579;-63
2022/01/27 03:41:07;;;;;;;0.60;0.60;;;;;;;;;;5083144;28;20205;-63
2022/01/27 03:43:34;;;;;;;0.70;0.70;;;;;;;;;;5081310;28;20262;-63
2022/01/27 03:46:00;;;;;;;0.70;0.70;;;;;;;;;;5081628;28;20183;-63
2022/01/27 03:48:26;;;;;;;0.60;0.60;;;;;;;;;;5082880;28;20194;-63
2022/01/27 03:50:52;;;;;;;0.60;0.60;;;;;;;;;;5081027;28;20409;-63
2022/01/27 03:53:17;;;;;;;0.60;0.60;;;;;;;;;;5081521;28;20209;-63
2022/01/27 03:55:44;;;;;;;0.60;0.60;;;;;;;;;;5082692;28;20405;-63
2022/01/27 03:58:10;;;;;;;0.60;0.60;;;;;;;;;;5080294;28;20429;-63
2022/01/27 04:00:36;;;;;;;0.60;0.60;;;;;;;;;;5082027;28;20177;-63
2022/01/27 04:03:06;;;;;;;0.70;0.70;;;;;;;;;;5074408;28;20179;-63
2022/01/27 04:05:36;;;;;;;0.60;0.60;;;;;;;;;;5071822;28;20178;-63
2022/01/27 04:08:03;;;;;;;0.50;0.50;;;;;;;;;;5071883;28;20642;-63
2022/01/27 04:10:29;;;;;;;0.60;0.60;;;;;;;;;;5071919;28;20190;-63
2022/01/27 04:12:55;;;;;;;0.60;0.60;;;;;;;;;;5071607;28;20198;-63
2022/01/27 04:15:21;;;;;;;0.60;0.60;;;;;;;;;;5071791;28;20409;-63
2022/01/27 04:17:47;;;;;;;0.60;0.60;;;;;;;;;;5071502;28;20406;-63
2022/01/27 04:20:13;;;;;;;0.60;0.60;;;;;;;;;;5071652;28;20190;-63
2022/01/27 04:22:39;;;;;;;0.60;0.60;;;;;;;;;;5071526;28;20793;-63
2022/01/27 04:25:05;;;;;;;0.60;0.60;;;;;;;;;;5071668;28;20182;-63
2022/01/27 04:27:35;;;;;;;0.60;0.60;;;;;;;;;;5071689;28;20227;-63
2022/01/27 04:30:04;;;;;;;0.50;0.50;;;;;;;;;;5071506;28;20212;-63
2022/01/27 04:32:37;;;;;;;0.60;0.60;;;;;;;;;;5071249;28;20187;-63
2022/01/27 04:35:05;;;;;;;0.60;0.60;;;;;;;;;;5071504;28;20171;-63
2022/01/27 04:37:37;;;;;;;0.60;0.60;;;;;;;;;;5071639;28;20527;-63
2022/01/27 04:40:09;;;;;;;0.60;0.60;;;;;;;;;;5071258;28;20209;-63
2022/01/27 04:45:09;;;;;;;0.60;0.60;;;;;;;;;;5071369;28;20183;-63
2022/01/27 04:47:41;;;;;;;0.70;0.70;;;;;;;;;;5071467;28;20163;-63
2022/01/27 04:50:07;;;;;;;0.70;0.70;;;;;;;;;;5071357;28;20859;-63
2022/01/27 04:52:38;;;;;;;0.68;0.68;;;;;;;;;;5071099;28;20203;-63
2022/01/27 04:55:08;;;;;;;0.52;0.52;;;;;;;;;;5071325;28;20638;-63
2022/01/27 04:57:36;;;;;;;0.70;0.70;;;;;;;;;;5071736;28;20604;-63
2022/01/27 05:00:04;;;;;;;0.60;0.60;;;;;;;;;;5071389;28;20222;-63
2022/01/27 05:02:47;;;;;;;0.63;0.63;;;;;;;;;;5071370;28;20185;-63
2022/01/27 05:05:13;;;;;;;0.70;0.70;;;;;;;;;;5071241;28;20171;-63
2022/01/27 05:07:39;;;;;;;0.50;0.50;;;;;;;;;;5071216;28;20201;-63
2022/01/27 05:10:15;;;;;;;0.70;0.70;;;;;;;;;;5071044;28;20197;-63
2022/01/27 05:12:50;;;;;;;0.60;0.60;;;;;;;;;;5070947;28;20449;-63
2022/01/27 05:15:17;;;;;;;0.68;0.68;;;;;;;;;;5071225;28;20217;-63
2022/01/27 05:17:43;;;;;;;0.70;0.70;;;;;;;;;;5053093;28;20171;-63
2022/01/27 05:20:10;;;;;;;0.60;0.60;;;;;;;;;;5070920;28;20216;-63
2022/01/27 05:22:36;;;;;;;0.70;0.70;;;;;;;;;;5070796;28;20501;-63
2022/01/27 05:25:02;;;;;;;0.60;0.60;;;;;;;;;;5071090;28;20663;-63
2022/01/27 05:27:28;;;;;;;0.68;0.68;;;;;;;;;;5071037;28;20410;-63
2022/01/27 05:29:54;;;;;;;0.60;0.60;;;;;;;;;;5071004;28;20202;-63
2022/01/27 05:32:20;;;;;;;0.60;0.60;;;;;;;;;;5070842;28;20449;-63
2022/01/27 05:34:46;;;;;;;0.70;0.70;;;;;;;;;;5070792;28;20176;-63
2022/01/27 05:37:12;;;;;;;0.60;0.60;;;;;;;;;;5070920;28;20535;-63
2022/01/27 05:39:38;;;;;;;0.60;0.60;;;;;;;;;;5070797;28;20207;-63
2022/01/27 05:42:04;;;;;;;0.60;0.60;;;;;;;;;;5052875;28;20526;-63
2022/01/27 05:44:33;;;;;;;0.60;0.60;;;;;;;;;;5070775;28;20402;-63
2022/01/27 05:46:59;;;;;;;0.60;0.60;;;;;;;;;;5052850;28;20171;-63
2022/01/27 05:49:25;;;;;;;0.60;0.60;;;;;;;;;;5070720;28;20183;-63
2022/01/27 05:51:51;;;;;;;0.60;0.60;;;;;;;;;;5070784;28;20512;-63
2022/01/27 05:54:17;;;;;;;0.60;0.60;;;;;;;;;;5071531;28;20281;-63
2022/01/27 05:56:43;;;;;;;0.70;0.70;;;;;;;;;;5056587;28;20202;-63
2022/01/27 05:59:09;;;;;;;0.60;0.60;;;;;;;;;;5074356;28;20924;-63
2022/01/27 06:01:35;;;;;;;0.60;0.60;;;;;;;;;;5093506;28;20178;-63
2022/01/27 06:04:01;;;;;;;0.63;0.63;;;;;;;;;;5092980;28;20412;-63
2022/01/27 06:06:27;;;;;;;0.60;0.60;;;;;;;;;;5093913;28;20409;-63
2022/01/27 06:08:53;;;;;;;0.60;0.60;;;;;;;;;;5092899;28;20415;-63
2022/01/27 06:11:19;;;;;;;0.60;0.60;;;;;;;;;;5093864;28;20409;-63
2022/01/27 06:13:45;;;;;;;0.53;0.53;;;;;;;;;;5094083;28;20954;-63
2022/01/27 06:16:12;;;;;;;0.50;0.50;;;;;;;;;;5094316;28;20462;-63
2022/01/27 06:18:38;;;;;;;0.60;0.60;;;;;;;;;;5094692;28;20408;-63
2022/01/27 06:21:06;;;;;;;0.60;0.60;;;;;;;;;;5094289;28;20576;-62
2022/01/27 06:23:32;;;;;;;0.70;0.70;;;;;;;;;;5093994;28;20163;-63
2022/01/27 06:25:59;;;;;;;0.60;0.60;;;;;;;;;;5075878;28;20182;-63
2022/01/27 06:28:25;;;;;;;0.60;0.60;;;;;;;;;;5093979;28;20213;-63
2022/01/27 06:30:51;;;;;;;0.70;0.70;;;;;;;;;;5093959;28;20637;-63
2022/01/27 06:33:16;;;;;;;0.60;0.60;;;;;;;;;;5093520;28;20444;-63
2022/01/27 06:35:42;;;;;;;0.60;0.60;;;;;;;;;;5093954;28;20174;-63
2022/01/27 06:38:09;;;;;;;0.60;0.60;;;;;;;;;;5093620;28;20428;-63
2022/01/27 06:40:35;;;;;;;0.60;0.60;;;;;;;;;;5093761;28;20170;-63
2022/01/27 06:43:01;;;;;;;0.60;0.60;;;;;;;;;;5093677;28;20257;-63
2022/01/27 06:45:27;;;;;;;0.70;0.70;;;;;;;;;;5094126;28;20268;-63
2022/01/27 06:47:53;;;;;;;0.60;0.60;;;;;;;;;;5075617;28;20408;-65
2022/01/27 06:50:19;;;;;;;0.60;0.60;;;;;;;;;;5075740;28;20413;-65
2022/01/27 06:52:45;;;;;;;0.60;0.60;;;;;;;;;;5093457;28;20301;-63
2022/01/27 06:55:12;;;;;;;0.60;0.60;;;;;;;;;;5093648;28;20673;-63
2022/01/27 06:57:38;;;;;;;0.60;0.60;;;;;;;;;;5093413;28;20404;-63
2022/01/27 07:00:05;;;;;;;0.60;0.60;;;;;;;;;;5093372;28;20188;-63
2022/01/27 07:02:31;;;;;;;0.70;0.70;;;;;;;;;;5092651;28;20516;-63
2022/01/27 07:04:57;;;;;;;0.60;0.60;;;;;;;;;;5092916;28;20257;-63
2022/01/27 07:07:23;;;;;;;0.60;0.60;;;;;;;;;;5092754;28;20420;-63
2022/01/27 07:09:49;;;;;;;0.60;0.60;;;;;;;;;;5092304;28;20212;-63
2022/01/27 07:12:15;;;;;;;0.60;0.60;;;;;;;;;;5075080;28;20412;-63
2022/01/27 07:14:41;;;;;;;0.70;0.70;;;;;;;;;;5093093;28;20412;-63
2022/01/27 07:17:07;;;;;;;0.70;0.70;;;;;;;;;;5092697;28;20424;-63
2022/01/27 07:19:33;;;;;;;0.60;0.60;;;;;;;;;;5092560;28;20444;-63
2022/01/27 07:21:59;;;;;;;0.60;0.60;;;;;;;;;;5092523;28;20212;-62
2022/01/27 07:24:25;;;;;;;0.60;0.60;;;;;;;;;;5092838;28;20250;-62
2022/01/27 07:26:51;;;;;;;0.70;0.70;;;;;;;;;;5093131;28;20194;-62
2022/01/27 07:29:17;;;;;;;0.50;0.50;;;;;;;;;;5092514;28;20195;-62
2022/01/27 07:31:43;;;;;;;0.60;0.60;;;;;;;;;;5092806;28;20404;-63
2022/01/27 07:34:09;;;;;;;0.60;0.60;;;;;;;;;;5092619;28;20213;-63
2022/01/27 07:36:35;;;;;;;0.60;0.60;;;;;;;;;;5092280;28;20420;-63
2022/01/27 07:39:02;;;;;;;0.60;0.60;;;;;;;;;;5093784;28;20273;-63
2022/01/27 07:41:28;;;;;;;0.70;0.70;;;;;;;;;;5092209;28;20829;-62
2022/01/27 07:43:54;;;;;;;0.57;0.57;;;;;;;;;;5092381;28;20174;-63
2022/01/27 07:46:20;;;;;;;0.60;0.60;;;;;;;;;;5091959;28;20516;-63
2022/01/27 07:48:45;;;;;;;0.50;0.50;;;;;;;;;;5092190;28;20198;-63
2022/01/27 07:51:12;;;;;;;0.53;0.53;;;;;;;;;;5092118;28;20469;-63
2022/01/27 07:53:38;;;;;;;0.60;0.60;;;;;;;;;;5091946;28;20460;-63
2022/01/27 07:56:04;;;;;;;0.60;0.60;;;;;;;;;;5085704;28;20179;-63
2022/01/27 07:58:38;;;;;;;0.60;0.60;;;;;;;;;;5088567;28;20194;-62
2022/01/27 08:01:05;;;;;;;0.70;0.70;;;;;;;;;;5072217;28;20659;-62
2022/01/27 08:03:31;;;;;;;0.60;0.60;;;;;;;;;;5083119;28;20213;-63
2022/01/27 08:05:57;;;;;;;0.60;0.60;;;;;;;;;;5091887;28;20182;-63
2022/01/27 08:08:22;;;;;;;0.60;0.60;;;;;;;;;;5091623;28;20630;-62
2022/01/27 08:10:48;;;;;;;0.60;0.60;;;;;;;;;;5092179;28;20895;-63
2022/01/27 08:13:15;;;;;;;0.50;0.50;;;;;;;;;;5092008;28;20543;-63
2022/01/27 08:15:40;;;;;;;0.60;0.60;;;;;;;;;;5091915;28;20172;-62
2022/01/27 08:18:06;;;;;;;0.60;0.60;;;;;;;;;;5091816;28;20663;-63
2022/01/27 08:20:33;;;;;;;0.60;0.60;;;;;;;;;;5091569;28;20822;-63
2022/01/27 08:22:59;;;;;;;0.60;0.60;;;;;;;;;;5091848;28;20437;-63
2022/01/27 08:25:26;;;;;;;0.60;0.60;;;;;;;;;;5091959;28;20265;-63
2022/01/27 08:27:55;;;;;;;0.60;0.60;;;;;;;;;;5091643;28;20412;-63
2022/01/27 08:30:24;;;;;;;0.60;0.60;;;;;;;;;;5091775;28;20253;-63
2022/01/27 08:32:58;;;;;;;0.60;0.60;;;;;;;;;;5091448;28;20213;-63
2022/01/27 08:35:24;;;;;;;0.60;0.60;;;;;;;;;;5092080;28;20178;-63
2022/01/27 08:37:52;;;;;;;0.60;0.60;;;;;;;;;;5091682;28;20258;-62
2022/01/27 08:40:18;;;;;;;0.50;0.50;;;;;;;;;;5091944;28;20212;-62
2022/01/27 08:42:45;;;;;;;0.50;0.50;;;;;;;;;;5091640;28;20198;-63
2022/01/27 08:45:13;;;;;;;0.60;0.60;;;;;;;;;;5091642;28;20181;-63
2022/01/27 08:47:39;;;;;;;0.60;0.60;;;;;;;;;;5091600;28;20170;-63
2022/01/27 08:50:07;;;;;;;0.60;0.60;;;;;;;;;;5091820;28;20585;-63
2022/01/27 08:52:33;;;;;;;0.60;0.60;;;;;;;;;;5091484;28;20186;-62
2022/01/27 08:55:00;;;;;;;0.60;0.60;;;;;;;;;;5091538;28;20629;-63
2022/01/27 08:57:26;;;;;;;0.70;0.70;;;;;;;;;;5091616;28;20171;-63
2022/01/27 08:59:53;;;;;;;0.60;0.60;;;;;;;;;;5091441;28;20194;-63
2022/01/27 09:02:20;;;;;;;0.70;0.70;;;;;;;;;;5091496;28;20633;-63
2022/01/27 09:04:46;;;;;;;0.60;0.60;;;;;;;;;;5091420;28;20256;-63
2022/01/27 09:07:12;;;;;;;0.60;0.60;;;;;;;;;;5091572;28;20206;-63
2022/01/27 09:09:38;;;;;;;0.70;0.70;;;;;;;;;;5091426;28;20424;-63
2022/01/27 09:12:04;;;;;;;0.70;0.70;;;;;;;;;;5091610;28;20192;-62
2022/01/27 09:14:31;;;;;;;0.60;0.60;;;;;;;;;;5091123;28;20413;-62
2022/01/27 09:16:58;;;;;;;0.60;0.60;;;;;;;;;;5091509;28;20178;-63
2022/01/27 09:19:28;;;;;;;0.60;0.60;;;;;;;;;;5091339;28;20616;-62
2022/01/27 09:21:54;;;;;;;0.50;0.50;;;;;;;;;;5091446;28;20170;-63
2022/01/27 09:24:27;;;;;;;0.60;0.60;;;;;;;;;;5091124;28;20172;-63
2022/01/27 09:26:59;;;;;;;0.50;0.50;;;;;;;;;;5073175;28;20586;-63
2022/01/27 09:29:26;;;;;;;0.60;0.60;;;;;;;;;;5092799;28;20201;-63
2022/01/27 09:31:52;;;;;;;0.70;0.70;;;;;;;;;;5095270;28;20633;-63
2022/01/27 09:34:18;;;;;;;0.60;0.60;;;;;;;;;;5094940;28;20660;-63
2022/01/27 09:36:49;;;;;;;0.70;0.70;;;;;;;;;;5095208;28;20170;-63
2022/01/27 09:39:15;;;;;;;0.60;0.60;;;;;;;;;;5095136;28;20201;-63
2022/01/27 09:41:43;;;;;;;0.60;0.60;;;;;;;;;;5094970;28;20166;-62
2022/01/27 09:44:12;;;;;;;0.60;0.60;;;;;;;;;;5094869;28;20539;-62
2022/01/27 09:46:41;;;;;;;0.60;0.60;;;;;;;;;;5097258;28;20173;-61
2022/01/27 09:49:13;;;;;;;0.55;0.55;;;;;;;;;;5095234;28;20843;-62
2022/01/27 09:51:44;;;;;;;0.55;0.55;;;;;;;;;;5095084;28;20498;-63
2022/01/27 09:54:10;;;;;;;0.60;0.60;;;;;;;;;;5094391;28;20190;-62
2022/01/27 09:56:36;;;;;;;0.50;0.50;;;;;;;;;;5094793;28;20178;-62
2022/01/27 09:59:03;;;;;;;0.50;0.50;;;;;;;;;;5094688;28;20286;-62
2022/01/27 10:01:29;;;;;;;0.60;0.60;;;;;;;;;;5094857;28;20593;-62
2022/01/27 10:03:56;;;;;;;0.60;0.60;;;;;;;;;;5094436;28;20231;-63
2022/01/27 10:06:27;;;;;;;0.60;0.60;;;;;;;;;;5094640;28;20171;-63
2022/01/27 10:09:11;;;;;;;0.60;0.60;;;;;;;;;;5094411;28;20194;-63
2022/01/27 10:11:37;;;;;;;0.70;0.70;;;;;;;;;;5094680;28;20182;-62
2022/01/27 10:14:16;;;;;;;0.60;0.60;;;;;;;;;;5094543;28;20631;-63
2022/01/27 10:16:43;;;;;;;0.60;0.60;;;;;;;;;;5095043;28;20416;-63
2022/01/27 10:19:10;;;;;;;0.60;0.60;;;;;;;;;;5095133;28;20688;-63
2022/01/27 10:21:37;;;;;;;0.50;0.50;;;;;;;;;;5095011;28;20634;-63
2022/01/27 10:24:23;;;;;;;0.60;0.60;;;;;;;;;;5094070;28;20183;-64
2022/01/27 10:26:54;;;;;;;0.60;0.60;;;;;;;;;;5094162;28;20243;-63
2022/01/27 10:29:38;;;;;;;0.60;0.60;;;;;;;;;;5094124;28;20194;-63
2022/01/27 10:32:08;;;;;;;0.50;0.50;;;;;;;;;;5075184;28;20206;-63
2022/01/27 10:34:54;;;;;;;0.60;0.60;;;;;;;;;;5093639;28;20591;-63
2022/01/27 10:37:20;;;;;;;0.60;0.60;;;;;;;;;;5094089;28;20170;-63
2022/01/27 10:39:47;;;;;;;0.50;0.50;;;;;;;;;;5093665;28;20206;-63
2022/01/27 10:42:13;;;;;;;0.50;0.50;;;;;;;;;;5093713;28;20241;-63
2022/01/27 10:44:54;;;;;;;0.63;0.63;;;;;;;;;;5093622;28;20171;-63
2022/01/27 10:47:23;;;;;;;0.60;0.60;;;;;;;;;;5093803;28;20198;-63
2022/01/27 10:49:58;;;;;;;0.60;0.60;;;;;;;;;;5075490;28;20657;-63
2022/01/27 10:55:05;;;;;;;0.60;0.60;;;;;;;;;;5093872;28;20209;-63
2022/01/27 10:57:31;;;;;;;0.50;0.50;;;;;;;;;;5093478;28;20189;-63
2022/01/27 11:00:05;;;;;;;0.60;0.60;;;;;;;;;;5092688;28;20198;-63
2022/01/27 11:02:31;;;;;;;0.50;0.50;;;;;;;;;;5093353;28;20438;-63
2022/01/27 11:04:57;;;;;;;0.50;0.50;;;;;;;;;;5093162;28;20171;-63
2022/01/27 11:07:25;;;;;;;0.70;0.70;;;;;;;;;;5093077;28;20490;-63
2022/01/27 11:09:53;;;;;;;0.60;0.60;;;;;;;;;;5093584;28;20190;-63
2022/01/27 11:12:19;;;;;;;0.57;0.57;;;;;;;;;;5093082;28;20173;-63
2022/01/27 11:14:48;;;;;;;0.50;0.50;;;;;;;;;;5093118;28;20245;-63
2022/01/27 11:17:20;;;;;;;0.60;0.60;;;;;;;;;;5092567;28;20190;-63
2022/01/27 11:27:32;;;;;;;0.60;0.60;;;;;;;;;;5093216;28;20174;-63
2022/01/27 11:30:17;;;;;;;0.60;0.60;;;;;;;;;;5092315;28;20210;-63
2022/01/27 11:32:59;;;;;;;0.70;0.70;;;;;;;;;;5092448;28;20198;-63
2022/01/27 11:35:26;;;;;;;0.50;0.50;;;;;;;;;;5093044;28;20183;-63
2022/01/27 11:37:55;;;;;;;0.60;0.60;;;;;;;;;;5092535;28;20167;-63
2022/01/27 11:40:24;;;;;;;0.60;0.60;;;;;;;;;;5090440;28;20178;-63
2022/01/27 11:42:56;;;;;;;0.60;0.60;;;;;;;;;;5092425;28;20163;-63
2022/01/27 11:45:39;;;;;;;0.60;0.60;;;;;;;;;;5092722;28;20174;-63
2022/01/27 11:48:12;;;;;;;0.60;0.60;;;;;;;;;;5092301;28;20178;-63
2022/01/27 11:50:53;;;;;;;0.50;0.50;;;;;;;;;;5092072;28;20163;-63
2022/01/27 11:53:30;;;;;;;0.50;0.50;;;;;;;;;;5073516;28;20209;-63
2022/01/27 11:55:57;;;;;;;0.70;0.70;;;;;;;;;;5074531;28;20182;-63
2022/01/27 11:58:24;;;;;;;0.60;0.60;;;;;;;;;;5092144;28;20198;-63
2022/01/27 12:01:06;;;;;;;0.50;0.50;;;;;;;;;;5091916;28;20730;-64
2022/01/27 12:03:32;;;;;;;0.60;0.60;;;;;;;;;;5073866;28;20189;-63
2022/01/27 12:06:18;;;;;;;0.50;0.50;;;;;;;;;;5092348;28;20193;-63
2022/01/27 12:08:44;;;;;;;0.52;0.52;;;;;;;;;;5092218;28;20190;-63
2022/01/27 12:11:11;;;;;;;0.60;0.60;;;;;;;;;;5091797;28;20174;-65
2022/01/27 12:13:44;;;;;;;0.60;0.60;;;;;;;;;;5091492;28;20571;-63
2022/01/27 12:19:00;;;;;;;0.50;0.50;;;;;;;;;;5092155;28;20190;-63
2022/01/27 12:21:40;;;;;;;0.60;0.60;;;;;;;;;;5092016;28;20190;-63
2022/01/27 12:24:17;;;;;;;0.60;0.60;;;;;;;;;;5090923;28;20167;-64
2022/01/27 12:26:48;;;;;;;0.60;0.60;;;;;;;;;;5092036;28;20169;-63
2022/01/27 12:29:33;;;;;;;0.60;0.60;;;;;;;;;;5091871;28;20199;-63
2022/01/27 12:32:00;;;;;;;0.60;0.60;;;;;;;;;;5091735;28;20673;-63
2022/01/27 12:34:26;;;;;;;0.60;0.60;;;;;;;;;;5091720;28;20289;-63
2022/01/27 12:36:53;;;;;;;0.60;0.60;;;;;;;;;;5091804;28;20194;-63
2022/01/27 12:39:21;;;;;;;0.60;0.60;;;;;;;;;;5091660;28;20210;-64
2022/01/27 12:41:48;;;;;;;0.50;0.50;;;;;;;;;;5091937;28;20183;-63
2022/01/27 12:44:14;;;;;;;0.60;0.60;;;;;;;;;;5091678;28;20186;-63
2022/01/27 12:47:00;;;;;;;0.57;0.57;;;;;;;;;;5091638;28;20202;-63
2022/01/27 12:49:37;;;;;;;0.50;0.50;;;;;;;;;;5091454;28;20194;-63
2022/01/27 12:52:07;;;;;;;0.50;0.50;;;;;;;;;;5091577;28;20241;-63
2022/01/27 12:54:34;;;;;;;0.50;0.50;;;;;;;;;;5091424;28;20251;-64
2022/01/27 12:57:00;;;;;;;0.60;0.60;;;;;;;;;;5093003;28;20170;-63
2022/01/27 12:59:30;;;;;;;0.50;0.50;;;;;;;;;;5091594;28;20864;-63
2022/01/27 13:02:00;;;;;;;0.60;0.60;;;;;;;;;;5091441;28;20253;-64
2022/01/27 13:04:28;;;;;;;0.60;0.60;;;;;;;;;;5092841;28;20499;-63
2022/01/27 13:06:56;;;;;;;0.50;0.50;;;;;;;;;;5095672;28;20174;-64
2022/01/27 13:09:22;;;;;;;0.60;0.60;;;;;;;;;;5095467;28;20198;-63
2022/01/27 13:11:50;;;;;;;0.50;0.50;;;;;;;;;;5095702;28;20546;-63
2022/01/27 13:14:17;;;;;;;0.50;0.50;;;;;;;;;;5095072;28;20194;-64
2022/01/27 13:16:46;;;;;;;0.60;0.60;;;;;;;;;;5095666;28;20329;-63
2022/01/27 13:19:25;;;;;;;0.50;0.50;;;;;;;;;;5095026;28;20198;-64
2022/01/27 13:22:06;;;;;;;0.50;0.50;;;;;;;;;;5095692;28;20174;-64
2022/01/27 13:24:34;;;;;;;0.50;0.50;;;;;;;;;;5095305;28;20169;-64
2022/01/27 13:27:04;;;;;;;0.50;0.50;;;;;;;;;;5095251;28;20169;-63
2022/01/27 13:29:38;;;;;;;0.60;0.60;;;;;;;;;;5095145;28;20197;-64
2022/01/27 13:32:05;;;;;;;0.60;0.60;;;;;;;;;;5095306;28;20178;-64
2022/01/27 13:34:31;;;;;;;0.50;0.50;;;;;;;;;;5094868;28;20207;-64
2022/01/27 13:37:01;;;;;;;0.50;0.50;;;;;;;;;;5095115;28;20173;-64
2022/01/27 13:41:53;;;;;;;0.50;0.50;;;;;;;;;;5095429;28;20759;-64
2022/01/27 13:44:20;;;;;;;0.60;0.60;;;;;;;;;;5076670;28;20485;-64
2022/01/27 13:46:47;;;;;;;0.60;0.60;;;;;;;;;;5076755;28;20176;-64
2022/01/27 13:49:19;;;;;;;0.60;0.60;;;;;;;;;;5094984;28;20196;-64
2022/01/27 13:52:04;;;;;;;0.50;0.50;;;;;;;;;;5094982;28;20251;-64
2022/01/27 13:54:29;;;;;;;0.50;0.50;;;;;;;;;;5094638;28;20699;-64
2022/01/27 13:56:55;;;;;;;0.60;0.60;;;;;;;;;;5076685;28;20181;-64
2022/01/27 13:59:28;;;;;;;0.60;0.60;;;;;;;;;;5094664;28;20434;-64
2022/01/27 14:02:13;;;;;;;0.50;0.50;;;;;;;;;;5094972;28;20400;-64
2022/01/27 14:04:45;;;;;;;0.60;0.60;;;;;;;;;;5095106;28;20199;-64
2022/01/27 14:07:11;;;;;;;0.60;0.60;;;;;;;;;;5076318;28;20188;-64
2022/01/27 14:09:41;;;;;;;0.50;0.50;;;;;;;;;;5094527;28;20193;-64
2022/01/27 14:12:08;;;;;;;0.60;0.60;;;;;;;;;;5094471;28;20174;-64
2022/01/27 14:14:47;;;;;;;0.68;0.68;;;;;;;;;;5093900;28;20192;-64
2022/01/27 14:17:20;;;;;;;0.50;0.50;;;;;;;;;;5094438;28;20169;-64
2022/01/27 14:19:46;;;;;;;0.50;0.50;;;;;;;;;;5094507;28;20548;-64
2022/01/27 14:22:17;;;;;;;0.60;0.60;;;;;;;;;;5094366;28;20169;-64
2022/01/27 14:25:00;;;;;;;0.60;0.60;;;;;;;;;;5094184;28;20951;-64
2022/01/27 14:27:33;;;;;;;0.60;0.60;;;;;;;;;;5094204;28;20228;-64
2022/01/27 14:29:59;;;;;;;0.50;0.50;;;;;;;;;;5094213;28;20187;-64
2022/01/27 14:32:25;;;;;;;0.60;0.60;;;;;;;;;;5093912;28;20176;-64
2022/01/27 14:34:51;;;;;;;0.60;0.60;;;;;;;;;;5094038;28;20181;-64
2022/01/27 14:37:17;;;;;;;0.50;0.50;;;;;;;;;;5094031;28;20169;-64
2022/01/27 14:39:43;;;;;;;0.50;0.50;;;;;;;;;;5093751;28;20208;-64
2022/01/27 14:42:11;;;;;;;0.50;0.50;;;;;;;;;;5093870;28;20396;-64
2022/01/27 14:44:37;;;;;;;0.50;0.50;;;;;;;;;;5093984;28;20893;-64
2022/01/27 14:47:05;;;;;;;0.50;0.50;;;;;;;;;;5093891;28;20183;-64
2022/01/27 14:49:31;;;;;;;0.50;0.50;;;;;;;;;;5093654;28;20435;-64
2022/01/27 14:51:58;;;;;;;0.60;0.60;;;;;;;;;;5093723;28;20645;-64
2022/01/27 14:54:24;;;;;;;0.60;0.60;;;;;;;;;;5093390;28;20449;-64
2022/01/27 14:56:50;;;;;;;0.60;0.60;;;;;;;;;;5093575;28;20185;-64
2022/01/27 14:59:17;;;;;;;0.50;0.50;;;;;;;;;;5093817;28;20535;-64
2022/01/27 15:01:43;;;;;;;0.50;0.50;;;;;;;;;;5093646;28;20200;-64
2022/01/27 15:04:09;;;;;;;0.60;0.60;;;;;;;;;;5092480;28;20214;-64
2022/01/27 15:06:36;;;;;;;0.60;0.60;;;;;;;;;;5093531;28;20450;-64
2022/01/27 15:09:02;;;;;;;0.60;0.60;;;;;;;;;;5093275;28;20427;-64
2022/01/27 15:11:28;;;;;;;0.50;0.50;;;;;;;;;;5093609;28;20639;-64
2022/01/27 15:18:48;;;;;;;0.60;0.60;;;;;;;;;;5093157;28;20289;-64
2022/01/27 15:19:39;;;;;;;0.50;0.50;;;;;;;;;;5092892;28;20204;-64
2022/01/27 15:22:05;;;;;;;0.60;0.60;;;;;;;;;;5093175;28;20689;-64
2022/01/27 15:24:31;;;;;;;0.60;0.60;;;;;;;;;;5093031;28;20207;-64
2022/01/27 15:26:57;;;;;;;0.50;0.50;;;;;;;;;;5092334;28;20606;-64
2022/01/27 15:29:24;;;;;;;0.50;0.50;;;;;;;;;;5091986;28;20429;-63
2022/01/27 15:31:50;;;;;;;0.60;0.60;;;;;;;;;;5092877;28;20176;-63
2022/01/27 15:34:16;;;;;;;0.60;0.60;;;;;;;;;;5091773;28;20200;-64
2022/01/27 15:36:42;;;;;;;0.55;0.55;;;;;;;;;;5091743;28;20170;-63
2022/01/27 15:39:09;;;;;;;0.60;0.60;;;;;;;;;;5092698;28;20645;-63
2022/01/27 15:41:35;;;;;;;0.50;0.50;;;;;;;;;;5092869;28;20225;-63
2022/01/27 15:44:01;;;;;;;0.60;0.60;;;;;;;;;;5092654;28;20183;-64
2022/01/27 15:46:28;;;;;;;0.50;0.50;;;;;;;;;;5092775;28;20184;-64
2022/01/27 15:48:54;;;;;;;0.60;0.60;;;;;;;;;;5074564;28;20441;-63
2022/01/27 15:51:20;;;;;;;0.60;0.60;;;;;;;;;;5092670;28;20183;-63